Pagrindinis puslapis
METAR-TAF:

METAR-TAF

Oro uostai :

Salvadoras, Salvadoras

platuma: 13-26N, ilguma: 089-03W, Aukštis: 25 m

Dabartinis oras

Ataskaita buvo paskelbta 52 minutes, ne 21:50 UTC
Vėjas 7 kt iš Rytų
Temperatūra 23°C
Drėgmė 100%
Slėgis 1009 hPa
Matomumas: 7000 m
Išsisklaidę debesys ne aukštis 1200 ft
Su prošvaistėmis ne aukštis 3000 ft
Apsiniaukę ne aukštis 5400 ft
lietus

METAR: MSLP 302150Z 09007KT 7000 RA SCT012 BKN030 OVC054 23/23 Q1009 A2980 TEMPO 3000 RA

Laikas: 16:42 (22:42 UTC)

Prognozė

Ataskaita buvo paskelbta 4 valandos ir 36 minutes, ne 18:06 UTC
Prognozė galioja nuo 30 metu 18 UTC su 31 metu 18 UTC
Vėjas 8 kt iš Rytų
Matomumas: 7000 m
Išsisklaidę debesys ne aukštis 1700 ft
Su prošvaistėmis ne aukštis 4300 ft
lietus
Laikinai
nuo 31 metu 01 UTC su 31 metu 06 UTC
Vėjas 8 kt iš Rytų/Pietryčių su gūsio iki 18 kt
Matomumas: 2000 m
Su prošvaistėmis ne aukštis 1300 ft
Su prošvaistėmis ne aukštis 5000 ft
lietus

TAF: MSLP 301806Z 3018/3118 08008KT 7000 RA SCT017 BKN043 TX28/3018Z TN23/3111Z TEMPO 3101/3106 11008G18KT 2000 +RA BKN013 BKN050

Orai ataskaitas ir orų prognozės (METAR, TAF).

turimą stotys yra geltonos ir raudonos taškus žemėlapyje.

Perkelti pele per norėdami pamatyti stoties vardą.

Tada spustelėkite, norėdami matyti oro stebėjimo ir prognozės.

Norėdami pakeisti žemėlapį: spustelėkite ant žalios mygtukų su juodo kryžiaus žemyn,; žalią mygtuką su brūkšneliu, jei norite nutolinti; arba žalių rodyklių gretimoms žemėlapius.


METAR-TAF: